Time;durP1;ratioP1;P1;durP2;ratioP2;P2;SDS_P1;SDS_P2;PMS_P1;PMS_P2;Temp;Humidity;BMP_temperature;BMP_pressure;BME280_temperature;BME280_humidity;BME280_pressure;Samples;Min_cycle;Max_cycle;Signal;HPM_P1;HPM_P2
2022/01/09 00:01:33;;;;;;;5.07;3.40;;;3.60;99.90;;;;;;5049402;28;20776;-45
2022/01/09 00:03:59;;;;;;;6.57;3.50;;;3.70;99.90;;;;;;5048037;28;20405;-45
2022/01/09 00:06:25;;;;;;;4.28;3.22;;;3.60;99.90;;;;;;5047100;28;20407;-47
2022/01/09 00:08:50;;;;;;;4.47;3.13;;;3.60;99.90;;;;;;5045685;28;20443;-47
2022/01/09 00:11:18;;;;;;;5.03;3.38;;;3.60;99.90;;;;;;5045902;28;20419;-46
2022/01/09 00:13:45;;;;;;;5.78;3.50;;;3.60;99.90;;;;;;5045354;28;20427;-48
2022/01/09 00:16:10;;;;;;;6.50;2.97;;;3.60;99.90;;;;;;5044471;28;20489;-45
2022/01/09 00:18:36;;;;;;;4.25;2.90;;;3.70;99.90;;;;;;5076801;28;20767;-47
2022/01/09 00:21:06;;;;;;;4.77;3.00;;;3.60;99.90;;;;;;5044081;28;20700;-47
2022/01/09 00:23:33;;;;;;;5.25;3.20;;;3.60;99.90;;;;;;5043253;28;20397;-45
2022/01/09 00:26:00;;;;;;;5.93;3.35;;;3.60;99.90;;;;;;5042852;28;20392;-46
2022/01/09 00:28:25;;;;;;;4.63;3.00;;;3.60;99.90;;;;;;5044277;28;20789;-46
2022/01/09 00:30:51;;;;;;;4.55;3.30;;;3.60;99.90;;;;;;5043038;28;20428;-45
2022/01/09 00:33:21;;;;;;;4.72;2.88;;;3.70;99.90;;;;;;5044335;28;20657;-47
2022/01/09 00:35:47;;;;;;;4.45;2.85;;;3.70;99.90;;;;;;5043900;28;20836;-45
2022/01/09 00:38:12;;;;;;;4.35;2.83;;;3.70;99.90;;;;;;5045649;28;20510;-45
2022/01/09 00:40:38;;;;;;;4.40;2.88;;;3.70;99.90;;;;;;5048885;28;20416;-46
2022/01/09 00:43:08;;;;;;;6.75;5.05;;;3.70;99.90;;;;;;5047875;28;20393;-48
2022/01/09 00:45:34;;;;;;;17.48;12.05;;;3.70;99.90;;;;;;5048505;28;20878;-45
2022/01/09 00:48:00;;;;;;;7.72;5.95;;;3.70;99.90;;;;;;5048708;28;20492;-45
2022/01/09 00:50:26;;;;;;;4.57;3.27;;;3.70;99.90;;;;;;5049193;28;20501;-45
2022/01/09 00:52:52;;;;;;;5.15;2.75;;;3.70;99.90;;;;;;5049636;28;20377;-47
2022/01/09 00:55:18;;;;;;;5.67;3.20;;;3.70;99.90;;;;;;5049760;28;20677;-49
2022/01/09 00:57:44;;;;;;;4.07;2.75;;;3.70;99.90;;;;;;5049266;28;20417;-48
2022/01/09 01:00:11;;;;;;;5.07;2.78;;;3.70;99.90;;;;;;5049430;28;20385;-46
2022/01/09 01:02:36;;;;;;;3.95;2.83;;;3.70;99.90;;;;;;5051664;28;20685;-45
2022/01/09 01:05:04;;;;;;;4.57;2.67;;;3.70;99.90;;;;;;5050600;28;20797;-46
2022/01/09 01:07:30;;;;;;;3.78;2.65;;;3.70;99.90;;;;;;5050643;28;20425;-46
2022/01/09 01:09:57;;;;;;;5.57;2.90;;;3.60;99.90;;;;;;5050092;28;20445;-47
2022/01/09 01:12:29;;;;;;;6.15;2.78;;;3.60;99.90;;;;;;5050763;28;20480;-45
2022/01/09 01:14:55;;;;;;;4.90;2.75;;;3.60;99.90;;;;;;5052804;28;20377;-44
2022/01/09 01:17:21;;;;;;;5.80;3.00;;;3.70;99.90;;;;;;5050664;28;20385;-47
2022/01/09 01:19:47;;;;;;;3.88;2.72;;;3.60;99.90;;;;;;5085268;28;20408;-46
2022/01/09 01:22:14;;;;;;;3.67;2.83;;;3.60;99.90;;;;;;5051517;28;20609;-46
2022/01/09 01:24:40;;;;;;;5.47;2.80;;;3.60;99.90;;;;;;5050861;28;20472;-49
2022/01/09 01:27:06;;;;;;;6.00;2.92;;;3.60;99.90;;;;;;5051667;28;20397;-48
2022/01/09 01:29:32;;;;;;;4.70;2.85;;;3.60;99.90;;;;;;5044392;28;20419;-45
2022/01/09 01:31:58;;;;;;;4.80;2.67;;;3.60;99.90;;;;;;5047838;28;20455;-48
2022/01/09 01:34:24;;;;;;;3.13;2.70;;;3.70;99.90;;;;;;5014968;28;20505;-46
2022/01/09 01:36:49;;;;;;;3.40;2.70;;;3.70;99.90;;;;;;5046847;28;20399;-45
2022/01/09 01:39:15;;;;;;;4.13;2.70;;;3.70;99.90;;;;;;5045845;28;20951;-45
2022/01/09 01:41:41;;;;;;;7.57;3.30;;;3.70;99.90;;;;;;5047083;28;20469;-45
2022/01/09 01:44:11;;;;;;;3.92;2.85;;;3.70;99.90;;;;;;5045862;28;20418;-46
2022/01/09 01:46:37;;;;;;;4.60;2.83;;;3.60;99.90;;;;;;5013463;28;20951;-46
2022/01/09 01:49:03;;;;;;;3.45;2.60;;;3.60;99.90;;;;;;5045907;28;20419;-46
2022/01/09 01:51:29;;;;;;;4.13;2.72;;;3.70;99.90;;;;;;5049203;28;20410;-45
2022/01/09 01:53:56;;;;;;;4.30;2.85;;;3.70;99.90;;;;;;5036585;28;20423;-47
2022/01/09 01:56:22;;;;;;;4.20;2.70;;;3.70;99.90;;;;;;5051824;28;20387;-45
2022/01/09 01:58:49;;;;;;;4.00;2.60;;;3.60;99.90;;;;;;5051620;28;20651;-46
2022/01/09 02:01:15;;;;;;;3.35;2.50;;;3.60;99.90;;;;;;5035827;28;20382;-47
2022/01/09 02:03:42;;;;;;;4.50;2.85;;;3.60;99.90;;;;;;5035536;28;20800;-45
2022/01/09 02:06:07;;;;;;;5.68;2.63;;;3.70;99.90;;;;;;5035055;28;20410;-46
2022/01/09 02:08:33;;;;;;;4.05;2.55;;;3.70;99.90;;;;;;5035482;28;20710;-45
2022/01/09 02:10:59;;;;;;;4.47;2.72;;;3.70;99.90;;;;;;5036744;28;20503;-47
2022/01/09 02:13:25;;;;;;;3.03;2.57;;;3.70;99.90;;;;;;5019764;28;20478;-48
2022/01/09 02:15:56;;;;;;;3.17;2.33;;;3.70;99.90;;;;;;5037375;28;20501;-47
2022/01/09 02:18:23;;;;;;;4.90;2.90;;;3.60;99.90;;;;;;5034248;28;20399;-45
2022/01/09 02:20:50;;;;;;;5.07;2.90;;;3.60;99.90;;;;;;5034848;28;20578;-45
2022/01/09 02:23:17;;;;;;;5.32;2.92;;;3.60;99.90;;;;;;5035131;28;20387;-46
2022/01/09 02:25:44;;;;;;;5.00;2.60;;;3.60;99.90;;;;;;5032969;28;20814;-47
2022/01/09 02:28:11;;;;;;;5.13;2.93;;;3.50;99.90;;;;;;5048422;28;20572;-46
2022/01/09 02:30:37;;;;;;;3.65;2.72;;;3.50;99.90;;;;;;5080210;28;20460;-48
2022/01/09 02:33:06;;;;;;;5.77;3.20;;;3.50;99.90;;;;;;5085354;28;20597;-45
2022/01/09 02:35:34;;;;;;;4.10;2.60;;;3.50;99.90;;;;;;5083317;28;20373;-46
2022/01/09 02:38:00;;;;;;;6.75;3.20;;;3.50;99.90;;;;;;5050865;28;20389;-46
2022/01/09 02:40:26;;;;;;;4.55;2.80;;;3.60;99.90;;;;;;5053046;28;20865;-49
2022/01/09 02:42:53;;;;;;;4.40;3.10;;;3.60;99.90;;;;;;5053054;28;20430;-46
2022/01/09 02:45:21;;;;;;;4.35;3.00;;;3.50;99.90;;;;;;5052860;28;20377;-45
2022/01/09 02:47:48;;;;;;;4.25;2.85;;;3.50;99.90;;;;;;5086410;28;20452;-45
2022/01/09 02:52:52;;;;;;;4.07;3.00;;;3.50;99.90;;;;;;5054896;28;20397;-45
2022/01/09 02:55:19;;;;;;;3.55;2.90;;;3.40;99.90;;;;;;5054106;28;20397;-45
2022/01/09 02:57:52;;;;;;;4.65;3.20;;;3.40;99.90;;;;;;5053424;28;20798;-47
2022/01/09 03:00:23;;;;;;;5.60;2.97;;;3.40;99.90;;;;;;5054600;28;20400;-47
2022/01/09 03:02:49;;;;;;;5.27;3.00;;;3.40;99.90;;;;;;5054366;28;20837;-45
2022/01/09 03:05:15;;;;;;;5.85;3.10;;;3.30;99.90;;;;;;5054934;28;21006;-45
2022/01/09 03:07:42;;;;;;;5.35;3.45;;;3.30;99.90;;;;;;5055820;28;20960;-45
2022/01/09 03:10:09;;;;;;;5.67;2.97;;;3.20;99.90;;;;;;5087805;28;20575;-45
2022/01/09 03:12:35;;;;;;;4.38;2.97;;;3.20;99.90;;;;;;5053533;28;20386;-44
2022/01/09 03:15:01;;;;;;;4.35;3.20;;;3.30;99.90;;;;;;5052463;28;20385;-45
2022/01/09 03:17:27;;;;;;;5.25;3.20;;;3.30;99.90;;;;;;5053772;28;20459;-48
2022/01/09 03:19:52;;;;;;;4.63;3.20;;;3.40;99.90;;;;;;5055192;28;20389;-47
2022/01/09 03:22:18;;;;;;;3.97;3.10;;;3.40;99.90;;;;;;5086572;28;20459;-45
2022/01/09 03:24:44;;;;;;;4.67;3.33;;;3.40;99.90;;;;;;5053106;28;20417;-47
2022/01/09 03:27:10;;;;;;;5.10;2.80;;;3.50;99.90;;;;;;5051678;28;20386;-48
2022/01/09 03:29:36;;;;;;;5.75;3.08;;;3.50;99.90;;;;;;5050895;28;20819;-45
2022/01/09 03:32:03;;;;;;;4.40;2.83;;;3.50;99.90;;;;;;5051142;28;20814;-45
2022/01/09 03:34:29;;;;;;;4.70;2.97;;;3.60;99.90;;;;;;5049602;28;20397;-45
2022/01/09 03:36:54;;;;;;;4.68;2.83;;;3.60;99.90;;;;;;5082976;28;20385;-44
2022/01/09 03:39:20;;;;;;;3.67;2.90;;;3.60;99.90;;;;;;5052969;28;20429;-44
2022/01/09 03:41:46;;;;;;;4.10;3.05;;;3.60;99.90;;;;;;5054618;28;20385;-45
2022/01/09 03:44:11;;;;;;;5.80;3.42;;;3.60;99.90;;;;;;5053630;28;20389;-45
2022/01/09 03:46:37;;;;;;;4.90;2.90;;;3.60;99.90;;;;;;5054784;28;20382;-44
2022/01/09 03:49:03;;;;;;;4.90;2.67;;;3.60;99.90;;;;;;5054571;28;20786;-48
2022/01/09 03:51:33;;;;;;;5.30;3.10;;;3.60;99.90;;;;;;5054921;28;20377;-45
2022/01/09 03:53:59;;;;;;;4.40;2.67;;;3.70;99.90;;;;;;5054957;28;20400;-47
2022/01/09 03:56:25;;;;;;;3.95;3.05;;;3.60;99.90;;;;;;5053640;28;20803;-46
2022/01/09 03:58:51;;;;;;;4.22;2.53;;;3.60;99.90;;;;;;5053913;28;20396;-47
2022/01/09 04:01:16;;;;;;;3.20;2.60;;;3.60;99.90;;;;;;5053640;28;20385;-45
2022/01/09 04:03:42;;;;;;;4.50;2.95;;;3.60;99.90;;;;;;5086933;28;20420;-47
2022/01/09 04:06:08;;;;;;;3.75;2.60;;;3.50;99.90;;;;;;5054328;28;20399;-48
2022/01/09 04:08:34;;;;;;;5.27;2.60;;;3.50;99.90;;;;;;5052695;28;20386;-45
2022/01/09 04:11:03;;;;;;;3.70;2.75;;;3.50;99.90;;;;;;5053906;28;20402;-47
2022/01/09 04:13:28;;;;;;;4.70;3.23;;;3.60;99.90;;;;;;5086591;28;20430;-47
2022/01/09 04:15:54;;;;;;;5.43;3.23;;;3.50;99.90;;;;;;5053336;28;20501;-46
2022/01/09 04:18:22;;;;;;;3.73;3.00;;;3.60;99.90;;;;;;5052779;28;20428;-47
2022/01/09 04:20:50;;;;;;;4.70;3.30;;;3.60;99.90;;;;;;5052886;28;20385;-45
2022/01/09 04:23:17;;;;;;;3.60;2.72;;;3.60;99.90;;;;;;5052013;28;20429;-45
2022/01/09 04:25:46;;;;;;;3.92;2.75;;;3.50;99.90;;;;;;5069017;28;20531;-45
2022/01/09 04:28:13;;;;;;;4.72;2.83;;;3.50;99.90;;;;;;5050447;28;20415;-45
2022/01/09 04:30:38;;;;;;;3.42;2.67;;;3.60;99.90;;;;;;5049910;28;20420;-46
2022/01/09 04:33:04;;;;;;;3.42;2.67;;;3.60;99.90;;;;;;5051074;28;20417;-45
2022/01/09 04:35:30;;;;;;;4.63;2.60;;;3.60;99.90;;;;;;5052279;28;20650;-46
2022/01/09 04:37:56;;;;;;;3.40;2.72;;;3.60;99.90;;;;;;5053245;28;20689;-44
2022/01/09 04:40:22;;;;;;;6.20;3.20;;;3.60;99.90;;;;;;5052552;28;20559;-49
2022/01/09 04:42:53;;;;;;;3.97;2.80;;;3.50;99.90;;;;;;5052521;28;20401;-48
2022/01/09 04:45:29;;;;;;;6.00;3.10;;;3.50;99.90;;;;;;5053893;28;20685;-47
2022/01/09 04:48:00;;;;;;;3.42;2.65;;;3.50;99.90;;;;;;5054361;28;20760;-45
2022/01/09 04:50:30;;;;;;;3.60;2.88;;;3.50;99.90;;;;;;5054097;28;20401;-45
2022/01/09 04:53:01;;;;;;;4.40;2.88;;;3.60;99.90;;;;;;5054151;28;20391;-45
2022/01/09 04:55:29;;;;;;;3.10;2.25;;;3.50;99.90;;;;;;5043072;28;20464;-45
2022/01/09 04:57:56;;;;;;;3.63;2.70;;;3.60;99.90;;;;;;5034758;28;20436;-47
2022/01/09 05:00:22;;;;;;;3.58;2.83;;;3.70;99.90;;;;;;5034652;28;20506;-48
2022/01/09 05:02:49;;;;;;;3.75;2.92;;;3.70;99.90;;;;;;5034529;28;20398;-46
2022/01/09 05:05:16;;;;;;;5.75;2.90;;;3.60;99.90;;;;;;5034697;28;20406;-48
2022/01/09 05:07:42;;;;;;;3.92;2.47;;;3.70;99.90;;;;;;5032195;28;20645;-47
2022/01/09 05:10:09;;;;;;;4.05;2.60;;;3.70;99.90;;;;;;5029135;28;20781;-47
2022/01/09 05:12:36;;;;;;;3.55;2.90;;;3.70;99.90;;;;;;5030982;28;20397;-45
2022/01/09 05:15:03;;;;;;;5.18;3.03;;;3.60;99.90;;;;;;5031066;28;20453;-46
2022/01/09 05:17:29;;;;;;;3.13;2.63;;;3.50;99.90;;;;;;5029410;28;20505;-46
2022/01/09 05:19:57;;;;;;;4.32;2.92;;;3.50;99.90;;;;;;5030168;28;20545;-45
2022/01/09 05:22:27;;;;;;;3.70;2.78;;;3.50;99.90;;;;;;5031544;28;20386;-45
2022/01/09 05:24:54;;;;;;;4.32;3.08;;;3.40;99.90;;;;;;5030268;28;20877;-46
2022/01/09 05:27:21;;;;;;;4.78;3.13;;;3.40;99.90;;;;;;5030648;28;20421;-45
2022/01/09 05:29:47;;;;;;;4.72;2.97;;;3.40;99.90;;;;;;5029418;28;20497;-45
2022/01/09 05:32:13;;;;;;;3.13;2.80;;;3.40;99.90;;;;;;5031424;28;20419;-45
2022/01/09 05:34:38;;;;;;;4.93;3.10;;;3.40;99.90;;;;;;5032274;28;20480;-45
2022/01/09 05:37:05;;;;;;;4.90;3.63;;;3.30;99.90;;;;;;5031782;28;20533;-45
2022/01/09 05:39:31;;;;;;;4.72;3.10;;;3.30;99.90;;;;;;5031309;28;20383;-46
2022/01/09 05:41:58;;;;;;;3.30;3.00;;;3.30;99.90;;;;;;5032150;28;20734;-47
2022/01/09 05:44:24;;;;;;;5.20;3.42;;;3.30;99.90;;;;;;5031663;28;20629;-45
2022/01/09 05:46:50;;;;;;;4.22;3.30;;;3.40;99.90;;;;;;5031201;28;20781;-46
2022/01/09 05:49:16;;;;;;;4.70;3.53;;;3.40;99.90;;;;;;5029746;28;20414;-48
2022/01/09 05:51:41;;;;;;;3.53;3.13;;;3.30;99.90;;;;;;5028601;28;20383;-46
2022/01/09 05:54:07;;;;;;;3.72;3.30;;;3.20;99.90;;;;;;5030135;28;20386;-45
2022/01/09 05:56:33;;;;;;;4.70;3.50;;;3.20;99.90;;;;;;5028739;28;20485;-46
2022/01/09 05:58:58;;;;;;;4.85;3.70;;;3.20;99.90;;;;;;5029532;28;20799;-46
2022/01/09 06:01:24;;;;;;;4.10;3.35;;;3.10;99.90;;;;;;5029345;28;20411;-45
2022/01/09 06:03:50;;;;;;;4.80;3.50;;;3.10;99.90;;;;;;5030555;28;20425;-47
2022/01/09 06:06:16;;;;;;;4.05;3.47;;;3.10;99.90;;;;;;5031074;28;20395;-47
2022/01/09 06:08:41;;;;;;;5.00;3.80;;;3.10;99.90;;;;;;5029878;28;20411;-48
2022/01/09 06:11:07;;;;;;;5.85;3.95;;;3.10;99.90;;;;;;5030857;28;20609;-47
2022/01/09 06:13:33;;;;;;;4.30;3.87;;;3.10;99.90;;;;;;5029200;28;20535;-45
2022/01/09 06:15:58;;;;;;;4.47;3.93;;;3.00;99.90;;;;;;5028884;28;20414;-45
2022/01/09 06:18:24;;;;;;;5.40;4.13;;;3.00;99.90;;;;;;5029888;28;20399;-45
2022/01/09 06:20:50;;;;;;;6.60;4.15;;;3.00;99.90;;;;;;5030395;28;20401;-47
2022/01/09 06:23:20;;;;;;;4.38;3.83;;;3.00;99.90;;;;;;5032099;28;20406;-47
2022/01/09 06:25:50;;;;;;;5.15;4.00;;;3.00;99.90;;;;;;5030822;28;20390;-47
2022/01/09 06:28:17;;;;;;;4.90;3.97;;;3.00;99.90;;;;;;5030089;28;20413;-48
2022/01/09 06:30:43;;;;;;;4.78;4.18;;;3.00;99.90;;;;;;5011748;28;20507;-49
2022/01/09 06:33:09;;;;;;;4.68;4.05;;;3.10;99.90;;;;;;5008752;28;20400;-48
2022/01/09 06:35:35;;;;;;;5.10;4.03;;;3.00;99.90;;;;;;5009286;28;20399;-46
2022/01/09 06:38:03;;;;;;;5.40;4.25;;;3.10;99.90;;;;;;5013231;28;20481;-46
2022/01/09 06:40:30;;;;;;;4.40;3.90;;;3.10;99.90;;;;;;5037040;28;20470;-47
2022/01/09 06:42:57;;;;;;;5.35;4.20;;;3.10;99.90;;;;;;5018839;28;20425;-48
2022/01/09 06:45:24;;;;;;;5.85;4.70;;;3.10;99.90;;;;;;5002027;28;20406;-50
2022/01/09 06:47:53;;;;;;;4.80;4.32;;;3.10;99.90;;;;;;5036201;28;20497;-50
2022/01/09 06:50:19;;;;;;;6.60;4.55;;;3.10;99.90;;;;;;5019618;28;20395;-47
2022/01/09 06:52:45;;;;;;;5.50;4.63;;;3.10;99.90;;;;;;5020382;28;20391;-45
2022/01/09 06:55:12;;;;;;;5.27;4.63;;;3.10;99.90;;;;;;5037858;28;20738;-46
2022/01/09 06:57:39;;;;;;;5.28;4.78;;;3.00;99.90;;;;;;5037226;28;20403;-46
2022/01/09 07:00:08;;;;;;;5.30;4.53;;;3.00;99.90;;;;;;5001939;28;20867;-45
2022/01/09 07:02:36;;;;;;;6.40;4.80;;;3.00;99.90;;;;;;4983792;28;20408;-46
2022/01/09 07:05:04;;;;;;;5.80;5.13;;;3.00;99.90;;;;;;4999343;28;20401;-45
2022/01/09 07:07:37;;;;;;;5.68;4.90;;;3.00;99.90;;;;;;5015630;28;20754;-46
2022/01/09 07:10:04;;;;;;;5.78;5.13;;;2.90;99.90;;;;;;4999287;28;21010;-47
2022/01/09 07:12:30;;;;;;;5.88;5.28;;;3.00;99.90;;;;;;5034016;28;20395;-46
2022/01/09 07:14:57;;;;;;;5.45;4.95;;;3.00;99.90;;;;;;5021897;28;20476;-46
2022/01/09 07:17:24;;;;;;;5.50;4.90;;;2.90;99.90;;;;;;5035614;28;20837;-45
2022/01/09 07:19:50;;;;;;;5.82;5.32;;;2.90;99.90;;;;;;5018189;28;20403;-47
2022/01/09 07:22:16;;;;;;;5.60;5.10;;;2.90;99.90;;;;;;5036145;28;20430;-46
2022/01/09 07:24:42;;;;;;;5.97;5.40;;;3.00;99.90;;;;;;5017800;28;20434;-45
2022/01/09 07:27:08;;;;;;;5.85;5.25;;;3.00;99.90;;;;;;5034771;28;20417;-46
2022/01/09 07:29:34;;;;;;;6.72;5.93;;;3.00;99.90;;;;;;5041357;28;20425;-49
2022/01/09 07:32:00;;;;;;;6.45;5.85;;;2.90;99.90;;;;;;5034705;28;20385;-45
2022/01/09 07:34:26;;;;;;;7.23;5.77;;;2.90;99.90;;;;;;5035147;28;20593;-47
2022/01/09 07:36:53;;;;;;;6.67;6.07;;;2.90;99.90;;;;;;5053723;28;20436;-46
2022/01/09 07:39:19;;;;;;;6.85;6.13;;;2.90;99.90;;;;;;5071643;28;20404;-46
2022/01/09 07:41:45;;;;;;;6.28;5.68;;;2.90;99.90;;;;;;5072904;28;20389;-45
2022/01/09 07:44:10;;;;;;;6.85;5.60;;;3.00;99.90;;;;;;5073011;28;20416;-45
2022/01/09 07:46:36;;;;;;;6.70;6.00;;;3.00;99.90;;;;;;5072396;28;20389;-46
2022/01/09 07:49:02;;;;;;;6.38;5.75;;;2.90;99.90;;;;;;5038975;28;20670;-46
2022/01/09 07:51:28;;;;;;;6.63;5.80;;;2.90;99.90;;;;;;5071516;28;20381;-45
2022/01/09 07:53:53;;;;;;;6.60;5.90;;;2.90;99.90;;;;;;5069914;28;20397;-45
2022/01/09 07:56:19;;;;;;;6.35;5.75;;;2.90;99.90;;;;;;5068661;28;20435;-45
2022/01/09 07:58:45;;;;;;;6.50;5.90;;;3.00;99.90;;;;;;5036089;28;20812;-47
2022/01/09 08:01:10;;;;;;;6.85;6.07;;;3.00;99.90;;;;;;5070214;28;20761;-44
2022/01/09 08:03:36;;;;;;;6.55;5.90;;;3.00;99.90;;;;;;5070424;28;20382;-44
2022/01/09 08:06:03;;;;;;;6.82;6.13;;;2.90;99.90;;;;;;5054301;28;20400;-44
2022/01/09 08:08:29;;;;;;;7.00;6.03;;;2.90;99.90;;;;;;5052082;28;20405;-45
2022/01/09 08:10:55;;;;;;;7.03;6.32;;;2.90;99.90;;;;;;5068198;28;20408;-44
2022/01/09 08:13:20;;;;;;;7.53;6.50;;;2.90;99.90;;;;;;5035007;28;20381;-45
2022/01/09 08:15:47;;;;;;;6.50;5.90;;;2.90;99.90;;;;;;5051923;28;20400;-45
2022/01/09 08:18:12;;;;;;;6.90;6.20;;;2.90;99.90;;;;;;5065355;28;20615;-45
2022/01/09 08:20:38;;;;;;;7.50;6.30;;;2.90;99.90;;;;;;5067299;28;20397;-47
2022/01/09 08:23:04;;;;;;;7.00;6.30;;;3.00;99.90;;;;;;5067841;28;20464;-44
2022/01/09 08:25:29;;;;;;;6.85;6.15;;;2.90;99.90;;;;;;5066804;28;20388;-47
2022/01/09 08:27:55;;;;;;;7.20;6.50;;;3.00;99.90;;;;;;5066358;28;20466;-45
2022/01/09 08:30:21;;;;;;;6.65;6.05;;;3.10;99.90;;;;;;5079086;28;20402;-46
2022/01/09 08:32:48;;;;;;;7.23;5.93;;;3.10;99.90;;;;;;5051625;28;20389;-45
2022/01/09 08:35:14;;;;;;;7.47;6.40;;;3.10;99.90;;;;;;5051986;28;20396;-45
2022/01/09 08:37:44;;;;;;;7.85;6.82;;;3.00;99.90;;;;;;5049192;28;20476;-47
2022/01/09 08:40:11;;;;;;;7.72;6.93;;;2.90;99.90;;;;;;5049480;28;20816;-47
2022/01/09 08:42:38;;;;;;;7.85;7.05;;;3.00;99.90;;;;;;5051549;28;20381;-45
2022/01/09 08:45:05;;;;;;;7.70;6.90;;;3.00;99.90;;;;;;5050051;28;20393;-47
2022/01/09 08:47:30;;;;;;;7.30;6.40;;;3.10;99.90;;;;;;5048841;28;20463;-45
2022/01/09 08:49:56;;;;;;;7.67;6.97;;;3.10;99.90;;;;;;5049584;28;20441;-45
2022/01/09 08:52:21;;;;;;;7.72;6.72;;;3.10;99.90;;;;;;5049089;28;20402;-45
2022/01/09 08:54:48;;;;;;;7.22;6.53;;;3.10;99.90;;;;;;5048972;28;20393;-46
2022/01/09 08:57:14;;;;;;;7.50;6.78;;;3.10;99.90;;;;;;5047437;28;20385;-45
2022/01/09 08:59:40;;;;;;;7.05;6.43;;;3.10;99.90;;;;;;5049434;28;20405;-50
2022/01/09 09:02:06;;;;;;;8.05;7.25;;;3.10;99.90;;;;;;5049637;28;20450;-47
2022/01/09 09:04:32;;;;;;;8.05;7.00;;;3.10;99.90;;;;;;5049673;28;20534;-46
2022/01/09 09:06:57;;;;;;;7.77;6.80;;;3.10;99.90;;;;;;5048736;28;20475;-44
2022/01/09 09:09:23;;;;;;;8.10;7.30;;;3.10;99.90;;;;;;5048923;28;20417;-45
2022/01/09 09:11:49;;;;;;;7.50;6.80;;;3.10;99.90;;;;;;5049538;28;20431;-49
2022/01/09 09:14:15;;;;;;;7.30;6.60;;;3.10;99.90;;;;;;5049777;28;20811;-44
2022/01/09 09:16:40;;;;;;;7.43;6.73;;;3.20;99.90;;;;;;5048048;28;20385;-45
2022/01/09 09:19:06;;;;;;;8.40;6.63;;;3.10;99.90;;;;;;5049883;28;20417;-44
2022/01/09 09:21:32;;;;;;;7.93;7.13;;;3.10;99.90;;;;;;5048364;28;20407;-45
2022/01/09 09:23:57;;;;;;;7.75;6.95;;;3.10;99.90;;;;;;5049311;28;20401;-44
2022/01/09 09:26:23;;;;;;;7.47;6.78;;;3.20;99.90;;;;;;5046953;28;20470;-45
2022/01/09 09:28:49;;;;;;;7.80;7.00;;;3.20;99.90;;;;;;5045869;28;20480;-48
2022/01/09 09:31:15;;;;;;;7.85;7.05;;;3.20;99.90;;;;;;5028116;28;20742;-45
2022/01/09 09:33:41;;;;;;;7.83;7.00;;;3.20;99.90;;;;;;5010550;28;20573;-44
2022/01/09 09:36:07;;;;;;;7.87;7.07;;;3.20;99.90;;;;;;5010667;28;20379;-46
2022/01/09 09:38:33;;;;;;;7.97;6.63;;;3.30;99.90;;;;;;5011256;28;20445;-44
2022/01/09 09:40:59;;;;;;;7.70;7.00;;;3.40;99.90;;;;;;5010429;28;20418;-45
2022/01/09 09:43:25;;;;;;;8.52;6.85;;;3.40;99.90;;;;;;5042391;28;20812;-48
2022/01/09 09:45:51;;;;;;;10.77;6.88;;;3.40;99.90;;;;;;5009775;28;20383;-45
2022/01/09 09:48:18;;;;;;;7.47;6.78;;;3.40;99.90;;;;;;5010156;28;20402;-47
2022/01/09 09:50:46;;;;;;;6.85;6.10;;;3.30;99.90;;;;;;5029188;28;20925;-46
2022/01/09 09:53:12;;;;;;;7.30;6.40;;;3.30;99.90;;;;;;5012877;28;20840;-49
2022/01/09 09:55:40;;;;;;;7.90;7.03;;;3.40;99.90;;;;;;5029879;28;20752;-48
2022/01/09 09:58:06;;;;;;;8.23;7.22;;;3.40;99.90;;;;;;5009409;28;20437;-50
2022/01/09 10:00:33;;;;;;;7.53;6.80;;;3.40;99.90;;;;;;5009621;28;20433;-45
2022/01/09 10:03:00;;;;;;;8.05;6.90;;;3.40;99.90;;;;;;5010709;28;20430;-46
2022/01/09 10:05:32;;;;;;;7.32;6.60;;;3.40;99.90;;;;;;5010346;28;20434;-47
2022/01/09 10:08:15;;;;;;;8.97;6.90;;;3.50;99.90;;;;;;5010720;28;20604;-46
2022/01/09 10:10:42;;;;;;;7.75;6.95;;;3.50;99.90;;;;;;5013751;28;20830;-45
2022/01/09 10:13:14;;;;;;;7.20;6.43;;;3.50;99.90;;;;;;5033448;28;20929;-49
2022/01/09 10:15:57;;;;;;;7.05;6.07;;;3.50;99.90;;;;;;5050830;28;20445;-46
2022/01/09 10:18:43;;;;;;;8.13;6.85;;;3.50;99.90;;;;;;5051400;28;20426;-51
2022/01/09 10:21:17;;;;;;;7.72;6.93;;;3.70;99.90;;;;;;5052427;28;20402;-47
2022/01/09 10:24:17;;;;;;;7.72;6.82;;;3.90;99.90;;;;;;5034921;28;20966;-49
2022/01/09 10:26:49;;;;;;;7.57;6.78;;;3.80;99.90;;;;;;4995428;28;21061;-48
2022/01/09 10:29:15;;;;;;;7.28;6.57;;;3.70;99.90;;;;;;5059608;28;20416;-48
2022/01/09 10:31:48;;;;;;;6.68;6.07;;;3.70;99.90;;;;;;5070630;28;20402;-46
2022/01/09 10:34:17;;;;;;;6.55;5.85;;;3.70;99.90;;;;;;5055589;28;20385;-44
2022/01/09 10:36:51;;;;;;;5.95;5.45;;;3.60;99.90;;;;;;5054021;28;20638;-46
2022/01/09 10:39:30;;;;;;;6.55;5.95;;;3.70;99.90;;;;;;5054253;28;20400;-46
2022/01/09 10:42:02;;;;;;;6.50;5.90;;;3.70;99.90;;;;;;5086752;28;20401;-45
2022/01/09 10:44:34;;;;;;;6.65;5.65;;;3.80;99.90;;;;;;5070630;28;20508;-45
2022/01/09 10:47:14;;;;;;;5.80;5.20;;;3.70;99.90;;;;;;5052931;28;20907;-47
2022/01/09 10:49:46;;;;;;;5.93;5.10;;;3.70;99.90;;;;;;5042889;28;20478;-45
2022/01/09 10:52:31;;;;;;;5.85;5.28;;;3.70;99.90;;;;;;5054446;28;20839;-45
2022/01/09 10:55:05;;;;;;;6.35;5.22;;;3.80;99.90;;;;;;5054452;28;20385;-45
2022/01/09 10:57:34;;;;;;;5.30;4.80;;;3.80;99.90;;;;;;5053593;28;20424;-49
2022/01/09 11:00:11;;;;;;;5.20;4.70;;;3.80;99.90;;;;;;5052564;28;20986;-45
2022/01/09 11:02:39;;;;;;;5.10;4.60;;;3.90;99.90;;;;;;5051123;28;20681;-44
2022/01/09 11:05:06;;;;;;;4.50;4.10;;;3.80;99.90;;;;;;5050129;28;20404;-48
2022/01/09 11:07:34;;;;;;;5.13;4.40;;;3.90;99.90;;;;;;5049314;28;20397;-44
2022/01/09 11:10:00;;;;;;;5.03;4.55;;;3.90;99.90;;;;;;5052023;28;20444;-48
2022/01/09 11:12:35;;;;;;;4.45;4.05;;;3.90;99.90;;;;;;5086647;28;20681;-45
2022/01/09 11:15:03;;;;;;;4.38;3.97;;;3.90;99.90;;;;;;5055429;28;20408;-50
2022/01/09 11:17:31;;;;;;;4.63;4.18;;;3.90;99.90;;;;;;5087283;28;20432;-47
2022/01/09 11:19:58;;;;;;;4.35;3.95;;;3.90;99.90;;;;;;5055042;28;20783;-48
2022/01/09 11:22:27;;;;;;;5.20;4.25;;;3.80;99.90;;;;;;5053711;28;20398;-45
2022/01/09 11:25:30;;;;;;;4.00;3.60;;;3.80;99.90;;;;;;5055675;28;20393;-48
2022/01/09 11:28:10;;;;;;;4.88;4.35;;;3.80;99.90;;;;;;5055361;28;20777;-46
2022/01/09 11:30:57;;;;;;;4.45;4.07;;;3.90;99.90;;;;;;5085628;28;20417;-45
2022/01/09 11:33:28;;;;;;;4.60;4.20;;;3.90;99.90;;;;;;5053789;28;20736;-45
2022/01/09 11:36:23;;;;;;;5.43;4.35;;;3.90;99.90;;;;;;5085940;28;20789;-46
2022/01/09 11:39:12;;;;;;;4.88;4.45;;;3.90;99.90;;;;;;5054229;28;20397;-45
2022/01/09 11:41:40;;;;;;;4.20;3.90;;;4.00;99.90;;;;;;5053690;28;20411;-46
2022/01/09 11:44:12;;;;;;;4.95;4.45;;;4.00;99.90;;;;;;5053752;28;20401;-45
2022/01/09 11:47:08;;;;;;;4.75;4.35;;;4.00;99.90;;;;;;5054778;28;20476;-45
2022/01/09 11:50:00;;;;;;;4.10;3.80;;;4.00;99.90;;;;;;5052943;28;20843;-45
2022/01/09 11:52:29;;;;;;;4.28;3.97;;;4.00;99.90;;;;;;5053024;28;20390;-47
2022/01/09 11:55:01;;;;;;;4.47;4.07;;;4.00;99.90;;;;;;5052668;28;20443;-46
2022/01/09 11:57:48;;;;;;;5.60;4.72;;;4.00;99.90;;;;;;5054016;28;20397;-49
2022/01/09 12:00:34;;;;;;;5.50;5.00;;;4.00;99.90;;;;;;5053171;28;20561;-47
2022/01/09 12:03:28;;;;;;;6.63;5.20;;;3.80;99.90;;;;;;5085583;28;20468;-45
2022/01/09 12:06:13;;;;;;;5.93;5.40;;;3.90;99.90;;;;;;5053762;28;20779;-50
2022/01/09 12:08:57;;;;;;;6.10;5.50;;;4.00;99.90;;;;;;5085392;28;20485;-45
2022/01/09 12:12:01;;;;;;;5.53;5.03;;;4.10;99.90;;;;;;5085538;28;20436;-46
2022/01/09 12:15:04;;;;;;;6.00;5.40;;;4.20;99.90;;;;;;5052396;28;20373;-45
2022/01/09 12:17:39;;;;;;;6.60;5.90;;;4.30;99.90;;;;;;5021003;28;20389;-48
2022/01/09 12:20:27;;;;;;;5.63;5.13;;;4.10;99.90;;;;;;5052347;28;20389;-45
2022/01/09 12:23:02;;;;;;;5.23;4.73;;;4.10;99.90;;;;;;5053314;28;20531;-48
2022/01/09 12:25:36;;;;;;;6.15;5.55;;;4.20;99.90;;;;;;5050574;28;20424;-47
2022/01/09 12:28:09;;;;;;;5.50;5.00;;;4.20;99.90;;;;;;5083692;28;20417;-45
2022/01/09 12:33:25;;;;;;;5.40;4.78;;;4.20;99.90;;;;;;5052187;28;20453;-46
2022/01/09 12:36:13;;;;;;;6.95;6.25;;;4.20;99.90;;;;;;5083882;28;20542;-46
2022/01/09 12:38:54;;;;;;;6.43;5.25;;;4.10;99.90;;;;;;5052464;28;20382;-48
2022/01/09 12:41:33;;;;;;;6.28;5.63;;;4.10;99.90;;;;;;5052794;28;20507;-45
2022/01/09 12:44:01;;;;;;;5.80;5.30;;;4.00;99.90;;;;;;5052213;28;20385;-45
2022/01/09 12:46:33;;;;;;;5.95;5.38;;;4.00;99.90;;;;;;5086127;28;20400;-45
2022/01/09 12:49:12;;;;;;;7.18;5.82;;;4.10;99.90;;;;;;5053169;28;20385;-48
2022/01/09 12:51:46;;;;;;;6.13;5.53;;;4.20;99.90;;;;;;5054202;28;20487;-45
2022/01/09 12:54:12;;;;;;;6.20;5.45;;;4.30;99.90;;;;;;5053401;28;20384;-48
2022/01/09 12:56:41;;;;;;;6.30;5.50;;;4.40;99.90;;;;;;5052334;28;20468;-45
2022/01/09 12:59:10;;;;;;;5.40;4.90;;;4.50;99.90;;;;;;5052558;28;20405;-44
2022/01/09 13:01:47;;;;;;;5.53;4.30;;;4.50;99.90;;;;;;5085509;28;20389;-47
2022/01/09 13:04:22;;;;;;;5.25;3.92;;;4.50;99.90;;;;;;5052543;28;20385;-47
2022/01/09 13:06:51;;;;;;;5.38;4.40;;;4.60;99.90;;;;;;5056006;28;20399;-45
2022/01/09 13:09:21;;;;;;;4.70;4.10;;;4.60;99.90;;;;;;5054239;28;20400;-47
2022/01/09 13:11:58;;;;;;;4.30;3.90;;;4.70;99.90;;;;;;5053009;28;20388;-45